createdAt,value
2023-01-25T00:00:52.587Z,97.67
2023-01-25T00:03:19.294Z,97.78
2023-01-25T00:05:45.987Z,98.22
2023-01-25T00:08:12.611Z,98.56
2023-01-25T00:10:39.270Z,98.15
2023-01-25T00:13:05.871Z,98.76
2023-01-25T00:15:32.465Z,98.40
2023-01-25T00:17:59.141Z,98.74
2023-01-25T00:20:26.541Z,98.60
2023-01-25T00:22:53.136Z,97.86
2023-01-25T00:25:19.768Z,99.21
2023-01-25T00:27:46.412Z,98.27
2023-01-25T00:30:13.394Z,98.42
2023-01-25T00:33:07.540Z,97.56
2023-01-25T00:35:34.669Z,98.98
2023-01-25T00:38:06.271Z,98.22
2023-01-25T00:40:32.904Z,98.29
2023-01-25T00:43:00.834Z,97.60
2023-01-25T00:45:27.514Z,98.21
2023-01-25T00:47:55.734Z,97.64
2023-01-25T00:50:22.343Z,97.54
2023-01-25T00:52:48.961Z,96.96
2023-01-25T00:55:15.733Z,96.94
2023-01-25T00:57:42.347Z,97.26
2023-01-25T01:00:09.884Z,97.60
2023-01-25T01:02:36.554Z,97.85
2023-01-25T01:05:03.290Z,96.78
2023-01-25T01:07:29.903Z,97.57
2023-01-25T01:09:56.588Z,98.12
2023-01-25T01:12:23.226Z,97.65
2023-01-25T01:14:49.810Z,96.87
2023-01-25T01:17:16.455Z,96.90
2023-01-25T01:19:43.158Z,97.73
2023-01-25T01:22:09.794Z,97.99
2023-01-25T01:24:36.798Z,98.19
2023-01-25T01:27:03.534Z,97.01
2023-01-25T01:29:30.229Z,96.70
2023-01-25T01:31:57.340Z,96.96
2023-01-25T01:34:24.086Z,96.42
2023-01-25T01:36:51.066Z,95.81
2023-01-25T01:39:17.827Z,96.52
2023-01-25T01:41:44.537Z,97.14
2023-01-25T01:44:20.117Z,96.62
2023-01-25T01:46:53.872Z,96.36
2023-01-25T01:49:26.543Z,96.67
2023-01-25T01:51:59.306Z,96.63
2023-01-25T01:54:55.027Z,95.10
2023-01-25T01:57:39.722Z,95.33
2023-01-25T02:00:14.297Z,96.16
2023-01-25T02:02:41.909Z,96.12
2023-01-25T02:05:17.544Z,96.36
2023-01-25T02:07:46.946Z,96.58
2023-01-25T02:10:13.684Z,95.56
2023-01-25T02:12:41.702Z,96.57
2023-01-25T02:15:09.624Z,96.09
2023-01-25T02:17:38.888Z,95.65
2023-01-25T02:20:20.068Z,95.45
2023-01-25T02:23:08.291Z,95.17
2023-01-25T02:25:35.070Z,95.53
2023-01-25T02:28:12.705Z,95.87
2023-01-25T02:30:39.582Z,96.08
2023-01-25T02:33:06.201Z,95.98
2023-01-25T02:35:48.431Z,96.15
2023-01-25T02:38:17.479Z,95.90
2023-01-25T02:41:03.097Z,95.81
2023-01-25T02:43:32.537Z,96.04
2023-01-25T02:46:14.459Z,97.07
2023-01-25T02:48:41.140Z,97.06
2023-01-25T02:51:09.151Z,96.54
2023-01-25T02:53:36.290Z,95.36
2023-01-25T02:56:03.122Z,96.03
2023-01-25T02:58:29.730Z,95.22
2023-01-25T03:00:57.671Z,95.69
2023-01-25T03:03:24.321Z,95.60
2023-01-25T03:05:50.943Z,94.86
2023-01-25T03:08:17.559Z,95.70
2023-01-25T03:10:44.213Z,94.73
2023-01-25T03:13:11.327Z,95.23
2023-01-25T03:15:37.975Z,96.16
2023-01-25T03:18:04.676Z,96.27
2023-01-25T03:20:31.407Z,95.98
2023-01-25T03:22:58.000Z,94.83
2023-01-25T03:25:24.607Z,96.00
2023-01-25T03:27:51.250Z,96.63
2023-01-25T03:30:17.963Z,95.27
2023-01-25T03:32:44.520Z,95.29
2023-01-25T03:35:11.165Z,95.18
2023-01-25T03:37:37.781Z,96.50
2023-01-25T03:40:07.753Z,95.28
2023-01-25T03:42:34.386Z,95.34
2023-01-25T03:45:00.958Z,94.66
2023-01-25T03:47:27.546Z,95.82
2023-01-25T03:49:54.142Z,96.85
2023-01-25T03:52:20.815Z,96.48
2023-01-25T03:54:47.458Z,97.16
2023-01-25T03:57:14.104Z,97.22
2023-01-25T03:59:40.775Z,95.78
2023-01-25T04:02:07.458Z,95.18
2023-01-25T04:04:34.133Z,95.26
2023-01-25T04:07:00.812Z,96.03
2023-01-25T04:09:27.361Z,96.96
2023-01-25T04:11:53.992Z,97.72
2023-01-25T04:14:34.999Z,97.19
2023-01-25T04:17:08.388Z,96.47
2023-01-25T04:19:34.987Z,96.13
2023-01-25T04:22:02.075Z,96.27
2023-01-25T04:24:28.665Z,96.23
2023-01-25T04:26:55.242Z,96.64
2023-01-25T04:29:28.707Z,97.51
2023-01-25T04:32:07.254Z,97.62
2023-01-25T04:34:33.919Z,97.79
2023-01-25T04:37:00.518Z,97.81
2023-01-25T04:39:27.149Z,97.61
2023-01-25T04:41:53.744Z,97.99
2023-01-25T04:44:20.347Z,97.25
2023-01-25T04:46:46.968Z,97.45
2023-01-25T04:49:13.563Z,96.87
2023-01-25T04:51:40.351Z,96.82
2023-01-25T04:54:06.992Z,96.03
2023-01-25T04:56:33.581Z,95.91
2023-01-25T04:59:00.133Z,96.21
2023-01-25T05:01:26.854Z,96.43
2023-01-25T05:03:53.475Z,96.73
2023-01-25T05:06:20.090Z,96.13
2023-01-25T05:08:46.647Z,96.47
2023-01-25T05:11:13.284Z,94.53
2023-01-25T05:13:40.064Z,95.02
2023-01-25T05:16:08.428Z,95.37
2023-01-25T05:18:47.507Z,95.55
2023-01-25T05:21:34.097Z,95.20
2023-01-25T05:24:00.764Z,95.04
2023-01-25T05:26:46.091Z,95.33
2023-01-25T05:29:12.875Z,95.38
2023-01-25T05:31:39.532Z,95.81
2023-01-25T05:34:06.157Z,96.45
2023-01-25T05:36:32.753Z,96.21
2023-01-25T05:38:59.349Z,96.16
2023-01-25T05:41:25.983Z,96.64
2023-01-25T05:43:52.640Z,96.51
2023-01-25T05:46:19.314Z,95.95
2023-01-25T05:48:47.909Z,95.30
2023-01-25T05:51:14.564Z,94.77
2023-01-25T05:53:41.204Z,95.06
2023-01-25T05:56:08.846Z,94.89
2023-01-25T05:58:35.452Z,95.74
2023-01-25T06:01:03.796Z,95.75
2023-01-25T06:03:30.636Z,95.33
2023-01-25T06:05:59.747Z,96.09
2023-01-25T06:08:26.376Z,97.17
2023-01-25T06:10:53.002Z,96.71
2023-01-25T06:13:19.689Z,96.98
2023-01-25T06:15:56.473Z,96.97
2023-01-25T06:18:26.679Z,97.06
2023-01-25T06:20:57.067Z,96.26
2023-01-25T06:23:24.283Z,95.78
2023-01-25T06:25:51.011Z,96.19
2023-01-25T06:28:17.648Z,95.87
2023-01-25T06:30:44.304Z,95.74
2023-01-25T06:33:10.971Z,96.83
2023-01-25T06:35:40.279Z,97.35
2023-01-25T06:38:07.238Z,96.56
2023-01-25T06:40:33.852Z,97.49
2023-01-25T06:43:09.717Z,97.48
2023-01-25T06:45:36.355Z,97.82
2023-01-25T06:48:03.052Z,97.01
2023-01-25T06:50:30.188Z,96.13
2023-01-25T06:52:56.992Z,96.60
2023-01-25T06:55:23.579Z,96.34
2023-01-25T06:57:50.292Z,96.04
2023-01-25T07:00:17.584Z,95.82
2023-01-25T07:02:44.372Z,95.86
2023-01-25T07:05:11.395Z,97.17
2023-01-25T07:07:38.231Z,96.57
2023-01-25T07:10:05.356Z,96.60
2023-01-25T07:12:32.066Z,95.98
2023-01-25T07:14:58.908Z,96.30
2023-01-25T07:17:25.574Z,95.77
2023-01-25T07:19:52.206Z,96.13
2023-01-25T07:22:18.873Z,95.81
2023-01-25T07:24:49.982Z,96.27
2023-01-25T07:27:17.408Z,96.73
2023-01-25T07:29:44.028Z,95.58
2023-01-25T07:32:13.833Z,95.33
2023-01-25T07:34:40.682Z,95.21
2023-01-25T07:37:07.327Z,94.86
2023-01-25T07:39:33.966Z,94.83
2023-01-25T07:42:00.627Z,95.53
2023-01-25T07:44:27.264Z,95.21
2023-01-25T07:46:55.144Z,95.21
2023-01-25T07:49:21.809Z,94.95
2023-01-25T07:51:48.429Z,95.13
2023-01-25T07:54:15.068Z,94.50
2023-01-25T07:56:41.704Z,94.95
2023-01-25T07:59:10.571Z,95.22
2023-01-25T08:01:38.941Z,95.38
2023-01-25T08:04:05.849Z,95.33
2023-01-25T08:06:36.230Z,93.96
2023-01-25T08:09:19.900Z,95.24
2023-01-25T08:11:47.257Z,94.91
2023-01-25T08:14:13.838Z,95.52
2023-01-25T08:16:40.468Z,96.38
2023-01-25T08:19:07.250Z,97.35
2023-01-25T08:21:35.271Z,96.66
2023-01-25T08:24:05.513Z,95.72
2023-01-25T08:26:32.733Z,95.96
2023-01-25T08:28:59.465Z,95.48
2023-01-25T08:31:29.150Z,96.24
2023-01-25T08:33:56.577Z,95.37
2023-01-25T08:36:24.341Z,95.65
2023-01-25T08:39:04.888Z,95.47
2023-01-25T08:41:33.971Z,95.38
2023-01-25T08:44:00.986Z,96.15
2023-01-25T08:46:31.479Z,96.87
2023-01-25T08:49:00.077Z,96.73
2023-01-25T08:51:27.716Z,96.35
2023-01-25T08:53:54.637Z,96.34
2023-01-25T08:56:21.363Z,96.29
2023-01-25T08:58:50.001Z,95.88
2023-01-25T09:01:19.434Z,95.79
2023-01-25T09:03:48.399Z,95.13
2023-01-25T09:06:15.475Z,95.92
2023-01-25T09:08:42.697Z,96.40
2023-01-25T09:11:12.572Z,96.27
2023-01-25T09:13:43.440Z,96.19
2023-01-25T09:16:13.422Z,95.78
2023-01-25T09:18:42.102Z,95.27
2023-01-25T09:21:18.267Z,95.27
2023-01-25T09:24:05.583Z,95.82
2023-01-25T09:26:34.387Z,95.76
2023-01-25T09:29:01.250Z,95.78
2023-01-25T09:31:29.431Z,94.40
2023-01-25T09:33:57.231Z,94.79
2023-01-25T09:36:23.824Z,95.48
2023-01-25T09:38:50.404Z,95.69
2023-01-25T09:41:56.210Z,95.28
2023-01-25T09:44:31.731Z,96.47
2023-01-25T09:47:02.059Z,96.63
2023-01-25T09:50:11.893Z,96.56
2023-01-25T09:53:06.996Z,95.76
2023-01-25T09:55:34.164Z,95.81
2023-01-25T09:58:03.032Z,95.06
2023-01-25T10:00:48.117Z,95.65
2023-01-25T10:03:48.516Z,95.80
2023-01-25T10:06:17.133Z,95.33
2023-01-25T10:08:58.807Z,96.23
2023-01-25T10:11:33.758Z,96.46
2023-01-25T10:14:00.680Z,95.34
2023-01-25T10:16:53.596Z,95.12
2023-01-25T10:19:23.560Z,95.01
2023-01-25T10:21:56.953Z,93.85
2023-01-25T10:25:07.551Z,94.25
2023-01-25T10:28:07.081Z,94.27
2023-01-25T10:30:42.574Z,94.21
2023-01-25T10:33:16.283Z,95.36
2023-01-25T10:35:48.003Z,95.55
2023-01-25T10:38:40.175Z,94.63
2023-01-25T10:41:28.769Z,95.28
2023-01-25T10:44:21.378Z,94.64
2023-01-25T10:47:20.659Z,94.62
2023-01-25T10:50:00.154Z,94.60
2023-01-25T10:52:31.978Z,94.99
2023-01-25T10:55:19.701Z,94.02
2023-01-25T10:57:57.857Z,92.89
2023-01-25T11:00:42.197Z,92.84
2023-01-25T11:03:38.771Z,92.23
2023-01-25T11:06:07.025Z,91.93
2023-01-25T11:08:43.070Z,92.39
2023-01-25T11:11:35.581Z,93.23
2023-01-25T11:14:14.884Z,92.36
2023-01-25T11:16:46.699Z,92.48
2023-01-25T11:19:38.481Z,92.06
2023-01-25T11:22:20.371Z,93.05
2023-01-25T11:24:47.574Z,93.57
2023-01-25T11:27:20.217Z,93.25
2023-01-25T11:30:07.162Z,93.34
2023-01-25T11:32:34.284Z,92.38
2023-01-25T11:35:01.108Z,92.86
2023-01-25T11:38:07.548Z,93.59
2023-01-25T11:40:40.531Z,91.69
2023-01-25T11:43:44.462Z,92.99
2023-01-25T11:46:44.791Z,93.04
2023-01-25T11:49:37.932Z,93.18
2023-01-25T11:52:49.545Z,92.13
2023-01-25T11:56:00.155Z,93.13
2023-01-25T11:58:48.242Z,92.28
2023-01-25T12:01:36.202Z,91.52
2023-01-25T12:04:47.307Z,91.67
2023-01-25T12:07:31.971Z,91.71
2023-01-25T12:10:24.253Z,91.29
2023-01-25T12:22:45.466Z,92.19
2023-01-25T12:25:26.774Z,92.41
2023-01-25T12:28:13.569Z,92.31
2023-01-25T12:30:51.309Z,91.34
2023-01-25T12:33:40.982Z,92.17
2023-01-25T12:36:32.184Z,92.36
2023-01-25T12:39:04.780Z,93.18
2023-01-25T12:41:46.563Z,92.56
2023-01-25T12:44:30.058Z,93.87
2023-01-25T12:47:15.101Z,93.41
2023-01-25T12:50:13.464Z,93.32
2023-01-25T12:52:46.959Z,93.53
2023-01-25T12:55:15.752Z,93.34
2023-01-25T12:58:00.934Z,93.05
2023-01-25T13:01:18.544Z,92.95
2023-01-25T13:04:21.016Z,92.54
2023-01-25T13:07:00.303Z,93.20
2023-01-25T13:09:43.947Z,91.56
2023-01-25T13:12:12.332Z,92.02
2023-01-25T13:14:40.710Z,92.41
2023-01-25T13:17:41.242Z,92.16
2023-01-25T13:20:42.926Z,92.38
2023-01-25T13:23:43.707Z,92.01
2023-01-25T13:26:42.363Z,92.74
2023-01-25T13:29:33.674Z,92.84
2023-01-25T13:32:01.650Z,92.36
2023-01-25T13:34:57.967Z,92.26
2023-01-25T13:37:29.116Z,93.37
2023-01-25T13:40:07.656Z,92.56
2023-01-25T13:42:37.153Z,92.81
2023-01-25T13:45:22.074Z,92.72
2023-01-25T13:48:05.644Z,93.73
2023-01-25T13:50:40.042Z,93.56
2023-01-25T13:53:15.471Z,92.46
2023-01-25T13:55:46.380Z,92.26
2023-01-25T13:58:27.901Z,92.77
2023-01-25T14:00:58.016Z,92.37
2023-01-25T14:03:32.023Z,93.79
2023-01-25T14:06:02.501Z,93.25
2023-01-25T14:08:30.296Z,93.60
2023-01-25T14:10:57.895Z,92.73
2023-01-25T14:13:24.862Z,92.76
2023-01-25T14:15:59.794Z,93.22
2023-01-25T14:18:34.308Z,92.59
2023-01-25T14:21:19.270Z,93.16
2023-01-25T14:23:46.896Z,92.45
2023-01-25T14:26:38.293Z,93.85
2023-01-25T14:29:31.742Z,92.84
2023-01-25T14:31:59.823Z,92.60
2023-01-25T14:34:26.753Z,92.07
2023-01-25T14:37:25.821Z,94.31
2023-01-25T14:39:52.647Z,93.43
2023-01-25T14:42:20.005Z,93.62
2023-01-25T14:44:47.286Z,93.36
2023-01-25T14:47:31.154Z,93.83
2023-01-25T14:50:48.626Z,93.02
2023-01-25T14:53:23.865Z,92.92
2023-01-25T14:55:51.834Z,91.74
2023-01-25T14:58:25.686Z,92.56
2023-01-25T15:00:54.086Z,92.91
2023-01-25T15:03:22.486Z,93.28
2023-01-25T15:05:49.457Z,94.60
2023-01-25T15:08:28.623Z,94.34
2023-01-25T15:10:57.698Z,93.15
2023-01-25T15:13:28.709Z,93.00
2023-01-25T15:16:00.201Z,93.01
2023-01-25T15:18:55.353Z,93.86
2023-01-25T15:21:30.493Z,94.64
2023-01-25T15:24:06.391Z,94.96
2023-01-25T15:26:35.281Z,94.00
2023-01-25T15:29:14.016Z,94.18
2023-01-25T15:31:41.786Z,94.10
2023-01-25T15:34:17.597Z,94.24
2023-01-25T15:36:44.283Z,94.29
2023-01-25T15:39:15.611Z,95.00
2023-01-25T15:41:42.504Z,93.54
2023-01-25T15:44:11.029Z,94.04
2023-01-25T15:46:40.939Z,93.38
2023-01-25T15:49:11.949Z,93.50
2023-01-25T15:51:38.556Z,93.69
2023-01-25T15:54:07.347Z,92.45
2023-01-25T15:56:37.108Z,93.40
2023-01-25T15:59:13.378Z,93.42
2023-01-25T16:01:40.068Z,93.46
2023-01-25T16:04:06.788Z,94.08
2023-01-25T16:06:58.732Z,93.47
2023-01-25T16:09:29.480Z,93.10
2023-01-25T16:11:58.246Z,92.41
2023-01-25T16:14:30.701Z,92.63
2023-01-25T16:17:02.555Z,93.40
2023-01-25T16:19:30.060Z,93.86
2023-01-25T16:21:57.306Z,93.36
2023-01-25T16:24:24.022Z,93.30
2023-01-25T16:26:53.850Z,93.72
2023-01-25T16:29:21.563Z,92.95
2023-01-25T16:31:48.511Z,92.77
2023-01-25T16:34:15.190Z,94.10
2023-01-25T16:36:42.137Z,93.34
2023-01-25T16:39:28.958Z,92.39
2023-01-25T16:41:58.865Z,92.76
2023-01-25T16:44:25.587Z,93.72
2023-01-25T16:46:52.248Z,93.66
2023-01-25T16:49:26.509Z,93.29
2023-01-25T16:51:54.543Z,93.40
2023-01-25T16:54:21.605Z,93.30
2023-01-25T16:56:48.986Z,93.13
2023-01-25T16:59:16.284Z,92.81
2023-01-25T17:01:43.585Z,93.15
2023-01-25T17:04:10.722Z,94.07
2023-01-25T17:06:40.733Z,93.79
2023-01-25T17:09:21.854Z,93.00
2023-01-25T17:11:49.464Z,92.79
2023-01-25T17:14:19.041Z,92.73
2023-01-25T17:16:48.177Z,93.51
2023-01-25T17:19:16.885Z,92.86
2023-01-25T17:21:43.960Z,92.68
2023-01-25T17:24:16.193Z,93.47
2023-01-25T17:26:42.921Z,93.35
2023-01-25T17:29:10.390Z,93.42
2023-01-25T17:31:38.244Z,93.71
2023-01-25T17:34:08.579Z,93.49
2023-01-25T17:36:35.234Z,93.38
2023-01-25T17:39:06.381Z,92.76
2023-01-25T17:41:33.135Z,93.38
2023-01-25T17:43:59.733Z,92.27
2023-01-25T17:46:33.264Z,92.43
2023-01-25T17:49:02.126Z,92.98
2023-01-25T17:51:30.259Z,92.86
2023-01-25T17:53:57.598Z,93.18
2023-01-25T17:56:24.536Z,93.74
2023-01-25T17:58:51.169Z,92.93
2023-01-25T18:01:20.795Z,92.20
2023-01-25T18:03:49.064Z,93.04
2023-01-25T18:06:18.501Z,92.73
2023-01-25T18:08:48.635Z,92.07
2023-01-25T18:11:21.181Z,92.75
2023-01-25T18:13:48.824Z,92.59
2023-01-25T18:16:17.352Z,92.43
2023-01-25T18:18:44.834Z,92.94
2023-01-25T18:21:17.053Z,91.91
2023-01-25T18:23:47.318Z,92.63
2023-01-25T18:26:19.445Z,92.68
2023-01-25T18:28:46.974Z,92.44
2023-01-25T18:31:17.399Z,92.91
2023-01-25T18:33:44.987Z,93.07
2023-01-25T18:36:16.680Z,92.45
2023-01-25T18:38:43.880Z,93.23
2023-01-25T18:41:10.899Z,92.71
2023-01-25T18:43:37.788Z,92.43
2023-01-25T18:46:05.174Z,92.23
2023-01-25T18:48:32.403Z,91.85
2023-01-25T18:50:59.722Z,92.55
2023-01-25T18:53:27.179Z,92.81
2023-01-25T18:56:07.078Z,92.61
2023-01-25T18:58:35.977Z,93.52
2023-01-25T19:01:02.826Z,92.54
2023-01-25T19:03:30.510Z,92.90
2023-01-25T19:05:58.918Z,92.27
2023-01-25T19:08:26.408Z,92.14
2023-01-25T19:11:06.126Z,93.44
2023-01-25T19:13:38.277Z,93.36
2023-01-25T19:16:08.089Z,93.49
2023-01-25T19:18:46.326Z,93.39
2023-01-25T19:21:15.245Z,92.11
2023-01-25T19:23:42.299Z,92.60
2023-01-25T19:26:13.174Z,92.45
2023-01-25T19:28:39.941Z,92.61
2023-01-25T19:31:17.909Z,92.52
2023-01-25T19:33:45.364Z,92.89
2023-01-25T19:36:18.404Z,92.62
2023-01-25T19:38:47.327Z,92.93
2023-01-25T19:41:20.489Z,93.01
2023-01-25T19:43:48.241Z,92.30
2023-01-25T19:46:18.486Z,93.21
2023-01-25T19:48:48.857Z,93.54
2023-01-25T19:51:28.299Z,93.10
2023-01-25T19:54:03.037Z,92.84
2023-01-25T19:56:32.793Z,93.63
2023-01-25T19:58:59.440Z,93.02
2023-01-25T20:01:29.255Z,93.08
2023-01-25T20:04:02.190Z,93.15
2023-01-25T20:06:28.877Z,93.62
2023-01-25T20:08:55.790Z,94.13
2023-01-25T20:11:27.413Z,93.35
2023-01-25T20:14:03.219Z,92.80
2023-01-25T20:16:32.286Z,93.10
2023-01-25T20:18:59.740Z,92.21
2023-01-25T20:21:27.597Z,92.99
2023-01-25T20:23:58.366Z,92.68
2023-01-25T20:26:27.838Z,93.25
2023-01-25T20:28:56.013Z,92.98
2023-01-25T20:31:28.350Z,92.91
2023-01-25T20:34:03.317Z,93.25
2023-01-25T20:36:31.792Z,93.08
2023-01-25T20:38:58.843Z,92.39
2023-01-25T20:41:25.519Z,92.01
2023-01-25T20:43:54.795Z,91.91
2023-01-25T20:46:22.005Z,92.38
2023-01-25T20:48:49.032Z,92.43
2023-01-25T20:51:17.158Z,92.85
2023-01-25T20:53:45.729Z,92.97
2023-01-25T20:56:13.343Z,92.93
2023-01-25T20:58:40.513Z,92.71
2023-01-25T21:01:14.540Z,92.88
2023-01-25T21:03:41.725Z,92.04
2023-01-25T21:06:08.869Z,93.15
2023-01-25T21:08:35.757Z,92.14
2023-01-25T21:11:02.845Z,92.19
2023-01-25T21:13:29.867Z,92.67
2023-01-25T21:16:12.199Z,92.50
2023-01-25T21:18:40.960Z,92.74
2023-01-25T21:21:15.736Z,92.98
2023-01-25T21:23:47.190Z,93.95
2023-01-25T21:26:17.116Z,93.19
2023-01-25T21:28:43.762Z,93.25
2023-01-25T21:31:13.462Z,93.86
2023-01-25T21:33:40.772Z,94.59
2023-01-25T21:36:09.258Z,93.98
2023-01-25T21:38:36.400Z,93.00
2023-01-25T21:41:04.384Z,93.51
2023-01-25T21:43:52.720Z,93.09
2023-01-25T21:46:27.184Z,93.28
2023-01-25T21:49:17.827Z,93.07
2023-01-25T21:51:50.119Z,92.59
2023-01-25T21:54:31.300Z,92.04
2023-01-25T21:56:59.543Z,91.75
2023-01-25T21:59:26.762Z,91.72
2023-01-25T22:01:54.668Z,92.21
2023-01-25T22:04:23.294Z,91.48
2023-01-25T22:06:52.196Z,92.31
2023-01-25T22:09:19.207Z,91.90
2023-01-25T22:11:46.812Z,91.73
2023-01-25T22:14:14.613Z,91.02
2023-01-25T22:16:41.329Z,92.12
2023-01-25T22:19:08.255Z,92.92
2023-01-25T22:21:34.875Z,91.90
2023-01-25T22:24:03.532Z,91.76
2023-01-25T22:26:39.248Z,91.85
2023-01-25T22:29:05.884Z,90.94
2023-01-25T22:31:32.809Z,91.61
2023-01-25T22:33:59.840Z,91.93
2023-01-25T22:36:28.911Z,91.28
2023-01-25T22:38:55.555Z,91.45
2023-01-25T22:41:27.685Z,91.73
2023-01-25T22:43:54.807Z,91.38
2023-01-25T22:46:23.701Z,91.32
2023-01-25T22:48:51.085Z,91.46
2023-01-25T22:51:21.599Z,90.38
2023-01-25T22:53:49.454Z,91.24
2023-01-25T22:56:19.153Z,90.97
2023-01-25T22:58:47.613Z,91.85
2023-01-25T23:01:22.979Z,92.39
2023-01-25T23:03:50.758Z,91.40
2023-01-25T23:06:20.873Z,91.04
2023-01-25T23:08:48.351Z,91.39
2023-01-25T23:11:20.981Z,90.92
2023-01-25T23:14:08.069Z,91.35
2023-01-25T23:16:35.622Z,90.96
2023-01-25T23:19:05.025Z,91.02
2023-01-25T23:21:32.006Z,92.18
2023-01-25T23:24:00.874Z,92.09
2023-01-25T23:26:29.688Z,92.08
2023-01-25T23:28:57.903Z,93.00
2023-01-25T23:31:26.103Z,92.67
2023-01-25T23:33:59.352Z,92.23
2023-01-25T23:36:31.444Z,92.35
2023-01-25T23:38:58.769Z,92.39
2023-01-25T23:41:27.415Z,92.55
2023-01-25T23:43:55.923Z,91.87
2023-01-25T23:46:23.974Z,91.59
2023-01-25T23:48:50.875Z,92.88
2023-01-25T23:51:17.831Z,92.78
2023-01-25T23:53:44.943Z,92.51
2023-01-25T23:56:17.814Z,93.19
2023-01-25T23:58:44.989Z,92.28
